Time;durP1;ratioP1;P1;durP2;ratioP2;P2;SDS_P1;SDS_P2;PMS_P1;PMS_P2;Temp;Humidity;BMP_temperature;BMP_pressure;BME280_temperature;BME280_humidity;BME280_pressure;Samples;Min_cycle;Max_cycle;Signal;HPM_P1;HPM_P2
2021/07/25 00:00:43;;;;;;;13.45;8.88;;;;;;;21.08;64.93;99204.97;5073579;28;20451;-71
2021/07/25 00:03:14;;;;;;;14.60;9.13;;;;;;;21.11;64.73;99204.81;5073516;28;20053;-70
2021/07/25 00:05:43;;;;;;;14.23;9.70;;;;;;;21.16;64.56;99188.06;5073532;28;20136;-70
2021/07/25 00:08:12;;;;;;;13.13;9.13;;;;;;;21.03;64.26;99162.78;5072330;28;20488;-69
2021/07/25 00:10:43;;;;;;;12.13;8.45;;;;;;;21.15;64.39;99181.22;5072595;28;20044;-70
2021/07/25 00:13:12;;;;;;;12.60;8.63;;;;;;;21.07;64.84;99192.88;5073602;28;20124;-70
2021/07/25 00:15:42;;;;;;;13.40;8.63;;;;;;;21.03;65.36;99207.75;5073767;28;20131;-71
2021/07/25 00:18:11;;;;;;;11.90;8.98;;;;;;;21.06;65.34;99202.44;5072329;28;20094;-70
2021/07/25 00:20:40;;;;;;;;;;;;;;;21.13;64.85;99193.44;5072606;28;20155;-70
2021/07/25 00:23:17;;;;;;;12.98;8.57;;;;;;;21.14;64.93;99200.28;5073679;28;19920;-71
2021/07/25 00:25:48;;;;;;;12.52;8.32;;;;;;;21.13;65.01;99192.59;5073326;28;20054;-71
2021/07/25 00:28:19;;;;;;;12.48;8.38;;;;;;;21.09;64.86;99185.88;5073922;28;20047;-71
2021/07/25 00:30:49;;;;;;;13.40;8.85;;;;;;;21.11;64.60;99179.69;5073324;28;20399;-71
2021/07/25 00:33:18;;;;;;;11.80;7.70;;;;;;;21.03;64.80;99173.19;5073317;28;20036;-70
2021/07/25 00:35:47;;;;;;;11.82;7.72;;;;;;;20.90;65.12;99170.34;5073844;28;20424;-70
2021/07/25 00:38:16;;;;;;;10.73;8.18;;;;;;;20.73;65.75;99173.00;5073210;28;20044;-71
2021/07/25 00:40:45;;;;;;;12.23;7.90;;;;;;;20.66;66.11;99184.56;5073512;28;20064;-70
2021/07/25 00:43:24;;;;;;;;;;;;;;;20.59;66.08;99180.59;5073607;28;20710;-71
2021/07/25 00:45:56;;;;;;;14.00;8.97;;;;;;;20.48;66.42;99185.47;5073527;28;19920;-70
2021/07/25 00:48:26;;;;;;;16.25;8.27;;;;;;;20.56;66.44;99183.34;5073503;28;20390;-70
2021/07/25 00:50:55;;;;;;;12.85;8.13;;;;;;;20.52;66.46;99189.59;5073619;28;20052;-71
2021/07/25 00:53:25;;;;;;;12.68;8.10;;;;;;;20.60;66.57;99198.69;5072968;28;20048;-71
2021/07/25 00:55:55;;;;;;;12.48;8.07;;;;;;;20.71;66.30;99190.34;5073070;28;20055;-70
2021/07/25 00:58:23;;;;;;;;;;;;;;;20.82;66.15;99193.28;5074042;28;20450;-70
2021/07/25 01:00:54;;;;;;;12.45;8.07;;;;;;;20.82;65.85;99182.91;5072818;28;19931;-69
2021/07/25 01:03:34;;;;;;;11.75;7.65;;;;;;;20.77;65.96;99192.66;5074683;28;20122;-69
2021/07/25 01:06:15;;;;;;;13.30;8.27;;;;;;;20.64;66.59;99184.66;5077046;28;20044;-71
2021/07/25 01:08:53;;;;;;;11.75;7.78;;;;;;;20.64;66.18;99196.78;5076664;28;20049;-70
2021/07/25 01:11:28;;;;;;;11.20;7.97;;;;;;;20.65;66.28;99191.53;5076611;28;20053;-70
2021/07/25 01:14:04;;;;;;;14.77;7.88;;;;;;;20.72;66.10;99197.25;5076642;28;20123;-70
2021/07/25 01:16:34;;;;;;;11.65;7.80;;;;;;;20.81;65.78;99190.75;5076854;28;20037;-69
2021/07/25 01:19:04;;;;;;;12.90;8.18;;;;;;;20.84;65.91;99198.38;5076476;28;20120;-70
2021/07/25 01:21:34;;;;;;;10.70;7.60;;;;;;;20.86;65.80;99205.16;5076416;28;20119;-69
2021/07/25 01:24:03;;;;;;;12.80;7.82;;;;;;;20.92;65.66;99201.44;5076526;28;20048;-71
2021/07/25 01:26:39;;;;;;;11.95;7.97;;;;;;;20.94;65.73;99208.22;5076302;28;20102;-71
2021/07/25 01:29:30;;;;;;;14.65;8.13;;;;;;;20.96;65.48;99201.19;5075051;28;20049;-71
2021/07/25 01:32:00;;;;;;;13.05;8.52;;;;;;;20.98;65.30;99208.91;5076857;28;20496;-70
2021/07/25 01:34:30;;;;;;;12.10;7.75;;;;;;;21.02;65.01;99211.25;5076351;28;20441;-71
2021/07/25 01:37:02;;;;;;;11.55;7.82;;;;;;;21.06;64.96;99207.66;5076768;28;20430;-71
2021/07/25 01:39:32;;;;;;;11.95;7.90;;;;;;;21.05;64.80;99213.75;5074946;28;20079;-70
2021/07/25 01:42:01;;;;;;;10.45;7.95;;;;;;;21.16;64.29;99219.22;5076320;28;20135;-70
2021/07/25 01:44:29;;;;;;;12.35;8.52;;;;;;;21.23;64.19;99215.41;5076109;28;20044;-70
2021/07/25 01:46:59;;;;;;;11.20;7.38;;;;;;;21.28;63.81;99215.16;5075934;28;20045;-70
2021/07/25 01:49:28;;;;;;;12.82;8.27;;;;;;;21.25;63.74;99213.56;5075856;28;20052;-70
2021/07/25 01:51:57;;;;;;;12.07;8.13;;;;;;;21.22;63.95;99215.47;5076203;28;20112;-70
2021/07/25 01:54:27;;;;;;;13.65;8.23;;;;;;;21.07;64.59;99209.31;5074455;28;20052;-69
2021/07/25 01:56:57;;;;;;;12.85;8.20;;;;;;;21.06;64.50;99206.78;5076111;28;20094;-70
2021/07/25 01:59:26;;;;;;;11.83;7.20;;;;;;;21.04;64.70;99209.41;5075879;28;20554;-70
2021/07/25 02:01:55;;;;;;;10.95;7.88;;;;;;;20.97;65.06;99221.03;5075647;28;20040;-69
2021/07/25 02:04:24;;;;;;;10.98;8.00;;;;;;;20.98;64.99;99229.66;5075814;28;20037;-69
2021/07/25 02:06:53;;;;;;;11.15;7.40;;;;;;;21.02;64.66;99219.03;5075881;28;20034;-70
2021/07/25 02:09:22;;;;;;;13.47;7.73;;;;;;;21.01;64.60;99219.97;5075831;28;20443;-70
2021/07/25 02:11:52;;;;;;;14.17;8.37;;;;;;;21.03;64.10;99218.13;5075760;28;20774;-70
2021/07/25 02:14:21;;;;;;;11.23;7.78;;;;;;;20.98;64.30;99221.88;5075928;28;20685;-69
2021/07/25 02:16:50;;;;;;;11.27;7.53;;;;;;;20.97;64.50;99215.84;5075675;28;20425;-70
2021/07/25 02:19:19;;;;;;;11.43;7.53;;;;;;;20.75;65.29;99207.47;5075295;28;20051;-70
2021/07/25 02:21:48;;;;;;;11.55;7.28;;;;;;;20.62;65.74;99214.16;5075245;28;20090;-70
2021/07/25 02:24:19;;;;;;;11.60;8.32;;;;;;;20.64;65.64;99209.72;5075543;28;20150;-70
2021/07/25 02:26:48;;;;;;;10.95;7.57;;;;;;;20.79;65.29;99202.94;5075106;28;20041;-70
2021/07/25 02:29:19;;;;;;;13.90;8.07;;;;;;;20.83;65.03;99200.13;5075428;28;20060;-70
2021/07/25 02:31:48;;;;;;;14.00;7.68;;;;;;;20.88;64.71;99202.47;5075411;28;20044;-69
2021/07/25 02:34:17;;;;;;;11.30;7.70;;;;;;;20.85;65.03;99202.66;5075523;28;20479;-71
2021/07/25 02:36:46;;;;;;;11.35;7.85;;;;;;;20.94;64.43;99197.84;5074952;28;20132;-71
2021/07/25 02:39:15;;;;;;;10.38;7.43;;;;;;;20.93;64.74;99206.53;5075181;28;20490;-72
2021/07/25 02:41:44;;;;;;;13.68;8.43;;;;;;;20.92;64.55;99201.44;5075439;28;20105;-70
2021/07/25 02:44:13;;;;;;;11.82;7.88;;;;;;;20.97;64.45;99197.66;5075400;28;20037;-71
2021/07/25 02:46:54;;;;;;;12.50;7.47;;;;;;;20.99;64.45;99203.66;5074901;28;20048;-71
2021/07/25 02:49:23;;;;;;;14.65;8.32;;;;;;;20.98;64.92;99208.91;5075067;28;20040;-70
2021/07/25 02:51:53;;;;;;;11.55;7.68;;;;;;;20.94;65.31;99208.22;5074655;28;20438;-69
2021/07/25 02:54:21;;;;;;;;;;;;;;;21.02;65.49;99220.81;5075256;28;20060;-69
2021/07/25 02:56:50;;;;;;;11.35;8.02;;;;;;;21.05;65.62;99224.13;5074691;28;20371;-70
2021/07/25 02:59:19;;;;;;;14.43;8.00;;;;;;;21.11;64.80;99226.41;5074232;28;20139;-69
2021/07/25 03:01:50;;;;;;;15.95;8.45;;;;;;;21.19;65.11;99232.03;5074835;28;20090;-70
2021/07/25 03:04:21;;;;;;;14.43;8.75;;;;;;;21.09;65.92;99242.97;5074493;28;20389;-68
2021/07/25 03:06:50;;;;;;;12.60;8.93;;;;;;;20.94;66.76;99248.91;5074524;28;20093;-68
2021/07/25 03:09:19;;;;;;;19.25;9.38;;;;;;;20.73;68.25;99245.63;5074379;28;20033;-69
2021/07/25 03:11:48;;;;;;;16.60;9.30;;;;;;;20.54;69.44;99262.94;5074588;28;20033;-68
2021/07/25 03:14:17;;;;;;;12.75;8.98;;;;;;;20.44;69.65;99259.16;5074476;28;20474;-69
2021/07/25 03:16:46;;;;;;;14.90;9.23;;;;;;;20.33;70.54;99261.38;5074309;28;20029;-68
2021/07/25 03:19:15;;;;;;;17.50;10.93;;;;;;;20.19;71.37;99262.00;5074212;28;20054;-69
2021/07/25 03:21:46;;;;;;;14.57;9.90;;;;;;;20.04;72.20;99268.72;5074380;28;20551;-69
2021/07/25 03:24:15;;;;;;;14.48;9.88;;;;;;;19.95;72.91;99257.94;5074116;28;20115;-69
2021/07/25 03:26:44;;;;;;;17.63;9.68;;;;;;;19.96;73.32;99252.69;5073426;28;20040;-69
2021/07/25 03:29:13;;;;;;;15.20;9.65;;;;;;;19.93;73.76;99258.03;5074329;28;20090;-69
2021/07/25 03:31:42;;;;;;;15.20;10.30;;;;;;;19.85;74.66;99262.69;5073929;28;20033;-69
2021/07/25 03:34:11;;;;;;;15.48;9.35;;;;;;;19.95;75.52;99263.97;5074161;28;20067;-69
2021/07/25 03:36:42;;;;;;;16.17;10.13;;;;;;;19.92;75.96;99266.69;5074105;28;20119;-69
2021/07/25 03:39:15;;;;;;;17.45;11.07;;;;;;;19.88;76.80;99272.09;5074244;28;20519;-69
2021/07/25 03:41:44;;;;;;;17.45;10.43;;;;;;;19.82;77.37;99274.97;5073826;28;20060;-69
2021/07/25 03:44:13;;;;;;;16.50;10.02;;;;;;;19.66;78.10;99277.38;5072583;28;20052;-69
2021/07/25 03:46:43;;;;;;;16.33;9.93;;;;;;;19.63;78.61;99280.09;5072952;28;20044;-69
2021/07/25 03:49:12;;;;;;;14.40;9.88;;;;;;;19.58;79.13;99284.63;5074354;28;20086;-69
2021/07/25 03:51:41;;;;;;;16.73;10.60;;;;;;;19.66;79.78;99287.75;5073717;28;20033;-69
2021/07/25 03:54:10;;;;;;;16.43;11.37;;;;;;;19.68;79.74;99290.25;5073907;28;20457;-69
2021/07/25 03:56:41;;;;;;;15.25;10.15;;;;;;;19.65;79.62;99293.81;5073894;28;20040;-69
2021/07/25 03:59:10;;;;;;;16.92;9.98;;;;;;;19.72;79.04;99295.25;5073811;28;20497;-69
2021/07/25 04:01:39;;;;;;;15.18;10.13;;;;;;;19.74;78.72;99303.78;5073628;28;20103;-69
2021/07/25 04:04:08;;;;;;;15.07;10.27;;;;;;;19.68;78.91;99304.03;5073868;28;20405;-68
2021/07/25 04:06:37;;;;;;;15.10;10.87;;;;;;;19.69;78.90;99305.75;5073577;28;20396;-69
2021/07/25 04:09:06;;;;;;;17.67;10.65;;;;;;;19.68;78.94;99308.38;5073442;28;20346;-68
2021/07/25 04:11:35;;;;;;;17.10;10.18;;;;;;;19.67;78.92;99310.16;5073862;28;20138;-69
2021/07/25 04:14:05;;;;;;;19.02;10.25;;;;;;;19.64;78.51;99307.69;5073397;28;20045;-69
2021/07/25 04:16:34;;;;;;;15.13;10.50;;;;;;;19.61;78.54;99305.22;5073811;28;20128;-69
2021/07/25 04:19:03;;;;;;;14.60;10.07;;;;;;;19.61;78.52;99320.75;5073420;28;20033;-69
2021/07/25 04:21:32;;;;;;;12.87;9.27;;;;;;;19.54;78.87;99319.34;5073698;28;20048;-69
2021/07/25 04:24:01;;;;;;;15.33;9.50;;;;;;;19.55;77.59;99323.63;5073715;28;20130;-70
2021/07/25 04:26:31;;;;;;;15.05;10.10;;;;;;;19.56;77.04;99324.44;5073347;28;20265;-69
2021/07/25 04:29:00;;;;;;;;;;;;;;;19.63;77.05;99324.13;5072732;28;20449;-68
2021/07/25 04:31:31;;;;;;;13.40;8.90;;;;;;;19.60;77.49;99321.69;5073294;28;20370;-69
2021/07/25 04:34:00;;;;;;;15.65;9.93;;;;;;;19.67;77.69;99317.91;5073207;28;20289;-69
2021/07/25 04:36:29;;;;;;;;;;;;;;;19.69;78.10;99321.28;5072551;28;20048;-68
2021/07/25 04:39:00;;;;;;;18.13;10.57;;;;;;;19.69;78.63;99315.25;5077480;28;19921;-70
2021/07/25 04:41:32;;;;;;;14.77;9.90;;;;;;;19.56;79.39;99319.25;5077538;28;20044;-69
2021/07/25 04:44:08;;;;;;;15.90;10.70;;;;;;;19.58;79.88;99302.75;5077248;28;20048;-69
2021/07/25 04:46:46;;;;;;;15.20;10.07;;;;;;;19.53;80.15;99294.34;5077437;28;20044;-69
2021/07/25 04:49:17;;;;;;;16.33;11.18;;;;;;;19.43;80.68;99298.25;5077169;28;20061;-70
2021/07/25 04:51:52;;;;;;;14.45;10.68;;;;;;;19.53;81.12;99290.94;5077606;28;20421;-70
2021/07/25 04:54:22;;;;;;;15.55;10.02;;;;;;;19.54;81.38;99290.84;5077220;28;20535;-70
2021/07/25 04:56:58;;;;;;;16.45;10.60;;;;;;;19.49;81.22;99297.97;5076949;28;20082;-70
2021/07/25 04:59:29;;;;;;;15.88;10.68;;;;;;;19.54;81.74;99290.84;5076575;28;20498;-69
2021/07/25 05:02:03;;;;;;;16.35;11.57;;;;;;;19.66;81.72;99290.31;5077143;28;20045;-69
2021/07/25 05:04:34;;;;;;;15.02;10.25;;;;;;;19.74;81.50;99277.91;5076801;28;20036;-69
2021/07/25 05:07:04;;;;;;;17.63;11.40;;;;;;;19.79;81.66;99275.09;5077028;28;20044;-70
2021/07/25 05:09:34;;;;;;;15.25;10.63;;;;;;;19.82;81.39;99274.97;5076860;28;20033;-70
2021/07/25 05:12:11;;;;;;;15.05;10.38;;;;;;;19.92;81.02;99271.88;5076926;28;20036;-70
2021/07/25 05:14:47;;;;;;;15.63;10.13;;;;;;;19.97;80.21;99280.28;5077113;28;20036;-70
2021/07/25 05:17:23;;;;;;;13.68;9.43;;;;;;;19.98;79.82;99271.63;5075333;28;20136;-70
2021/07/25 05:19:57;;;;;;;14.07;9.98;;;;;;;19.99;79.53;99269.84;5076612;28;20095;-70
2021/07/25 05:22:42;;;;;;;16.75;10.63;;;;;;;20.06;79.32;99274.69;5076773;28;20067;-70
2021/07/25 05:25:12;;;;;;;13.90;10.13;;;;;;;20.16;78.80;99279.44;5076408;28;20051;-70
2021/07/25 05:27:43;;;;;;;13.80;10.02;;;;;;;20.14;78.56;99276.91;5076847;28;20040;-70
2021/07/25 05:30:14;;;;;;;17.30;10.20;;;;;;;20.21;78.34;99267.09;5076413;28;20037;-70
2021/07/25 05:32:45;;;;;;;14.27;9.48;;;;;;;20.27;78.19;99265.13;5076281;28;20136;-69
2021/07/25 05:35:15;;;;;;;13.45;10.05;;;;;;;20.38;77.85;99267.19;5074966;28;20045;-71
2021/07/25 05:37:45;;;;;;;12.68;9.93;;;;;;;20.44;77.05;99269.50;5076473;28;20552;-70
2021/07/25 05:40:16;;;;;;;14.20;9.43;;;;;;;20.48;76.44;99271.88;5076001;28;20402;-70
2021/07/25 05:42:45;;;;;;;15.68;9.77;;;;;;;20.50;76.47;99275.25;5076110;28;20116;-70
2021/07/25 05:45:15;;;;;;;13.55;9.98;;;;;;;20.55;76.26;99282.81;5076025;28;20115;-71
2021/07/25 05:47:46;;;;;;;14.57;10.07;;;;;;;20.56;75.62;99285.31;5075954;28;20048;-70
2021/07/25 05:50:15;;;;;;;14.10;9.90;;;;;;;20.55;75.59;99291.41;5075609;28;20048;-70
2021/07/25 05:52:46;;;;;;;13.57;9.57;;;;;;;20.58;75.46;99285.25;5075900;28;20067;-69
2021/07/25 05:55:19;;;;;;;13.55;9.25;;;;;;;20.60;75.30;99284.28;5074579;28;20055;-69
2021/07/25 05:57:48;;;;;;;13.55;9.18;;;;;;;20.56;74.92;99284.50;5075792;28;20525;-70
2021/07/25 06:00:18;;;;;;;13.85;10.23;;;;;;;20.55;75.25;99290.56;5075454;28;20076;-70
2021/07/25 06:02:52;;;;;;;12.63;9.55;;;;;;;20.64;75.53;99288.38;5075699;28;20045;-70
2021/07/25 06:05:22;;;;;;;15.00;10.55;;;;;;;20.53;76.05;99284.63;5075647;28;20049;-70
2021/07/25 06:07:52;;;;;;;17.30;11.27;;;;;;;20.50;76.59;99289.94;5075868;28;20440;-69
2021/07/25 06:10:23;;;;;;;13.38;9.90;;;;;;;20.50;77.04;99284.75;5075443;28;20037;-69
2021/07/25 06:12:52;;;;;;;14.57;10.48;;;;;;;20.57;76.42;99289.59;5076090;28;20051;-69
2021/07/25 06:15:22;;;;;;;14.95;10.88;;;;;;;20.61;75.85;99292.91;5075281;28;20064;-70
2021/07/25 06:17:53;;;;;;;18.00;10.93;;;;;;;20.63;75.60;99296.25;5074130;28;20437;-70
2021/07/25 06:20:22;;;;;;;17.90;10.27;;;;;;;20.64;75.37;99300.50;5075298;28;20063;-71
2021/07/25 06:22:52;;;;;;;16.63;10.50;;;;;;;20.67;74.73;99292.59;5075275;28;20119;-71
2021/07/25 06:25:24;;;;;;;14.88;9.95;;;;;;;20.68;74.48;99305.47;5075226;28;20048;-71
2021/07/25 06:27:55;;;;;;;16.17;11.40;;;;;;;20.68;74.60;99289.09;5075432;28;20052;-70
2021/07/25 06:30:25;;;;;;;15.57;10.55;;;;;;;20.65;74.79;99289.22;5075146;28;20055;-70
2021/07/25 06:32:57;;;;;;;14.00;10.13;;;;;;;20.66;74.85;99296.09;5075034;28;20503;-71
2021/07/25 06:35:28;;;;;;;16.42;10.32;;;;;;;20.68;75.02;99283.91;5075557;28;20037;-70
2021/07/25 06:37:57;;;;;;;18.10;11.30;;;;;;;20.65;75.34;99284.03;5075288;28;20048;-70
2021/07/25 06:40:28;;;;;;;16.08;10.95;;;;;;;20.55;75.84;99298.34;5074881;28;20053;-71
2021/07/25 06:42:59;;;;;;;14.98;10.98;;;;;;;20.60;76.23;99297.25;5075263;28;20051;-69
2021/07/25 06:45:29;;;;;;;17.55;11.18;;;;;;;20.65;76.64;99294.41;5075093;28;20040;-68
2021/07/25 06:48:00;;;;;;;15.82;10.73;;;;;;;20.72;76.30;99290.63;5075445;28;20048;-68
2021/07/25 06:50:31;;;;;;;16.38;10.82;;;;;;;20.71;76.19;99301.91;5074704;28;20053;-69
2021/07/25 06:53:00;;;;;;;15.80;11.23;;;;;;;20.76;76.40;99307.69;5075039;28;20098;-68
2021/07/25 06:55:31;;;;;;;15.80;10.88;;;;;;;20.81;76.10;99308.31;5074494;28;20695;-69
2021/07/25 06:58:00;;;;;;;16.00;11.82;;;;;;;20.82;76.68;99316.94;5075103;28;20119;-69
2021/07/25 07:00:29;;;;;;;14.80;11.00;;;;;;;20.86;76.79;99316.72;5073483;28;20102;-69
2021/07/25 07:02:59;;;;;;;17.35;11.93;;;;;;;20.91;76.59;99306.13;5074822;28;20266;-68
2021/07/25 07:05:30;;;;;;;15.25;11.50;;;;;;;20.91;75.73;99309.56;5074455;28;20222;-69
2021/07/25 07:08:00;;;;;;;15.82;10.63;;;;;;;20.94;75.32;99308.59;5074387;28;20053;-69
2021/07/25 07:10:31;;;;;;;15.77;10.43;;;;;;;20.97;75.14;99311.84;5074362;28;20053;-69
2021/07/25 07:13:03;;;;;;;17.75;11.35;;;;;;;20.99;75.40;99304.00;5074587;28;20037;-68
2021/07/25 07:15:32;;;;;;;14.43;11.20;;;;;;;20.98;75.45;99291.94;5074149;28;20072;-67
2021/07/25 07:18:03;;;;;;;15.55;11.65;;;;;;;21.00;75.60;99292.69;5074145;28;20493;-69
2021/07/25 07:20:33;;;;;;;18.60;11.73;;;;;;;21.02;75.35;99294.31;5073015;28;20054;-68
2021/07/25 07:23:03;;;;;;;15.70;12.18;;;;;;;21.05;74.65;99299.38;5074385;28;20040;-69
2021/07/25 07:25:35;;;;;;;14.15;11.10;;;;;;;20.99;74.93;99299.66;5074126;28;20557;-69
2021/07/25 07:28:05;;;;;;;14.82;11.18;;;;;;;21.06;74.43;99301.06;5073978;28;20055;-69
2021/07/25 07:30:34;;;;;;;15.48;11.20;;;;;;;21.07;74.27;99296.69;5074320;28;20427;-69
2021/07/25 07:33:11;;;;;;;16.10;11.38;;;;;;;21.13;74.03;99302.44;5073936;28;20059;-68
2021/07/25 07:35:41;;;;;;;14.50;11.32;;;;;;;21.23;73.78;99298.50;5074191;28;20082;-69
2021/07/25 07:38:11;;;;;;;15.10;11.00;;;;;;;21.28;73.26;99303.44;5073843;28;20060;-68
2021/07/25 07:40:41;;;;;;;15.40;11.75;;;;;;;21.31;73.04;99300.66;5073883;28;20049;-68
2021/07/25 07:43:11;;;;;;;15.43;11.10;;;;;;;21.34;72.54;99316.94;5073795;28;20064;-68
2021/07/25 07:45:42;;;;;;;15.05;11.15;;;;;;;21.30;72.45;99325.81;5073762;28;20502;-68
2021/07/25 07:48:12;;;;;;;17.35;11.45;;;;;;;21.29;72.35;99316.34;5074118;28;20059;-69
2021/07/25 07:50:42;;;;;;;15.07;10.85;;;;;;;21.34;72.11;99316.94;5073724;28;20048;-68
2021/07/25 07:53:11;;;;;;;15.98;11.07;;;;;;;21.34;72.26;99316.94;5073631;28;20048;-70
2021/07/25 07:55:40;;;;;;;17.50;11.07;;;;;;;21.38;72.40;99311.59;5073596;28;20036;-68
2021/07/25 07:58:09;;;;;;;14.90;10.50;;;;;;;21.36;72.07;99322.91;5073649;28;20040;-69
2021/07/25 08:00:42;;;;;;;13.45;10.18;;;;;;;21.41;72.04;99317.47;5073504;28;20044;-69
2021/07/25 08:03:12;;;;;;;14.40;11.07;;;;;;;21.45;72.37;99318.97;5074091;28;20036;-69
2021/07/25 08:05:42;;;;;;;15.23;11.35;;;;;;;21.51;72.80;99317.84;5073587;28;20048;-69
2021/07/25 08:08:11;;;;;;;10.67;8.20;;;;;;;21.57;73.06;99320.16;5073466;28;20051;-68
2021/07/25 08:10:40;;;;;;;17.42;11.93;;;;;;;21.63;73.01;99314.63;5072118;28;20040;-69
2021/07/25 08:13:10;;;;;;;15.32;11.45;;;;;;;21.70;72.69;99308.19;5073157;28;20083;-68
2021/07/25 08:15:39;;;;;;;16.38;11.32;;;;;;;21.77;72.38;99310.38;5073337;28;20485;-69
2021/07/25 08:18:08;;;;;;;14.85;11.45;;;;;;;21.88;72.05;99309.88;5073120;28;20052;-69
2021/07/25 08:20:38;;;;;;;16.58;11.93;;;;;;;22.00;71.35;99306.63;5073285;28;20098;-67
2021/07/25 08:23:07;;;;;;;15.80;12.02;;;;;;;22.08;70.54;99299.25;5073391;28;20516;-70
2021/07/25 08:25:36;;;;;;;15.73;11.13;;;;;;;22.17;69.43;99297.94;5073530;28;20041;-71
2021/07/25 08:28:05;;;;;;;15.43;11.60;;;;;;;22.24;68.48;99294.91;5073372;28;20037;-69
2021/07/25 08:30:34;;;;;;;15.00;11.25;;;;;;;22.39;67.80;99294.06;5073591;28;20453;-71
2021/07/25 08:33:04;;;;;;;16.27;12.10;;;;;;;22.62;67.55;99295.44;5073234;28;20043;-71
2021/07/25 08:35:33;;;;;;;16.85;12.68;;;;;;;22.93;66.45;99289.31;5073421;28;20047;-70
2021/07/25 08:38:04;;;;;;;15.68;11.73;;;;;;;23.06;65.44;99290.31;5073383;28;20043;-70
2021/07/25 08:40:35;;;;;;;14.77;11.55;;;;;;;23.19;64.84;99291.25;5073247;28;20056;-68
2021/07/25 08:43:06;;;;;;;14.90;11.45;;;;;;;23.34;64.10;99283.41;5073178;28;20052;-70
2021/07/25 08:45:37;;;;;;;15.80;11.77;;;;;;;23.42;63.04;99277.75;5073220;28;20044;-71
2021/07/25 08:48:12;;;;;;;16.13;11.90;;;;;;;23.46;62.61;99274.03;5073127;28;20057;-68
2021/07/25 08:50:44;;;;;;;16.30;11.43;;;;;;;23.56;62.14;99277.78;5073114;28;20049;-68
2021/07/25 08:53:17;;;;;;;14.88;11.63;;;;;;;23.62;61.47;99264.38;5073150;28;20131;-71
2021/07/25 08:55:47;;;;;;;15.35;11.23;;;;;;;23.78;61.12;99252.06;5072066;28;20143;-70
2021/07/25 08:58:18;;;;;;;16.30;11.48;;;;;;;24.08;61.04;99256.34;5072946;28;20045;-71
2021/07/25 09:00:52;;;;;;;16.02;11.32;;;;;;;24.42;60.81;99261.13;5072845;28;20408;-68
2021/07/25 09:03:23;;;;;;;17.20;12.00;;;;;;;24.63;60.09;99262.34;5072985;28;20052;-68
2021/07/25 09:05:56;;;;;;;15.40;10.90;;;;;;;24.69;60.32;99275.00;5073035;28;20505;-69
2021/07/25 09:08:29;;;;;;;15.35;12.00;;;;;;;24.75;60.80;99274.59;5071743;28;20044;-69
2021/07/25 09:11:07;;;;;;;13.95;10.80;;;;;;;24.79;59.59;99273.50;5073073;28;20049;-69
2021/07/25 09:13:36;;;;;;;14.38;10.30;;;;;;;24.84;58.27;99273.19;5072858;28;20076;-70
2021/07/25 09:16:06;;;;;;;13.18;9.98;;;;;;;24.81;57.29;99271.63;5072815;28;20414;-70
2021/07/25 09:18:35;;;;;;;12.38;10.52;;;;;;;24.86;57.32;99277.38;5071627;28;20044;-71
2021/07/25 09:21:04;;;;;;;11.50;9.30;;;;;;;24.81;56.32;99283.84;5073019;28;20041;-69
2021/07/25 09:23:34;;;;;;;11.70;9.45;;;;;;;24.75;55.68;99274.59;5073042;28;20569;-70
2021/07/25 09:26:03;;;;;;;13.23;10.25;;;;;;;24.81;55.73;99279.44;5076315;28;20379;-70
2021/07/25 09:28:34;;;;;;;12.07;9.90;;;;;;;24.89;56.01;99277.19;5076301;28;20102;-70
2021/07/25 09:31:14;;;;;;;11.50;8.85;;;;;;;24.86;53.75;99282.59;5076599;28;20064;-69
2021/07/25 09:33:44;;;;;;;11.90;8.75;;;;;;;24.88;52.68;99275.53;5076167;28;20131;-70
2021/07/25 09:36:19;;;;;;;13.23;8.93;;;;;;;25.09;52.32;99263.66;5076461;28;20437;-69
2021/07/25 09:38:51;;;;;;;9.82;7.70;;;;;;;25.18;51.13;99262.19;5076566;28;20048;-69
2021/07/25 09:41:23;;;;;;;10.55;8.57;;;;;;;25.25;51.78;99266.06;5076370;28;20040;-71
2021/07/25 09:44:00;;;;;;;10.20;8.23;;;;;;;25.37;51.17;99267.00;5076354;28;20052;-69
2021/07/25 09:46:41;;;;;;;9.20;7.97;;;;;;;25.51;51.44;99265.16;5076233;28;20041;-69
2021/07/25 09:49:10;;;;;;;10.02;7.95;;;;;;;25.60;50.39;99263.72;5076300;28;20044;-70
2021/07/25 09:51:39;;;;;;;10.85;8.38;;;;;;;25.51;49.54;99254.72;5075886;28;20040;-68
2021/07/25 09:54:10;;;;;;;10.77;7.88;;;;;;;25.58;49.43;99249.91;5075669;28;20068;-69
2021/07/25 09:56:39;;;;;;;10.77;8.60;;;;;;;25.77;49.15;99260.78;5075847;28;20066;-70
2021/07/25 09:59:24;;;;;;;11.65;8.30;;;;;;;25.83;47.57;99252.50;5075437;28;20063;-68
2021/07/25 10:01:54;;;;;;;12.20;8.30;;;;;;;25.89;48.33;99250.28;5075734;28;20060;-69
2021/07/25 10:04:24;;;;;;;10.88;7.88;;;;;;;26.01;48.61;99240.72;5075570;28;20056;-70
2021/07/25 10:06:55;;;;;;;10.77;7.82;;;;;;;26.14;47.04;99254.66;5075844;28;20510;-69
2021/07/25 10:09:27;;;;;;;11.77;8.38;;;;;;;26.13;47.55;99244.31;5075832;28;20483;-69
2021/07/25 10:12:00;;;;;;;10.07;7.90;;;;;;;26.47;47.58;99246.13;5075502;28;20127;-69
2021/07/25 10:14:31;;;;;;;10.55;8.10;;;;;;;26.77;47.32;99237.88;5075606;28;20040;-69
2021/07/25 10:17:02;;;;;;;9.63;7.90;;;;;;;26.96;46.04;99243.41;5075351;28;20049;-70
2021/07/25 10:19:37;;;;;;;10.07;8.30;;;;;;;26.90;45.56;99233.41;5075411;28;20512;-69
2021/07/25 10:22:09;;;;;;;10.80;8.25;;;;;;;26.92;46.53;99234.13;5075351;28;20048;-69
2021/07/25 10:24:41;;;;;;;10.38;8.20;;;;;;;27.10;46.22;99230.09;5075209;28;20048;-68
2021/07/25 10:27:10;;;;;;;10.10;8.20;;;;;;;26.91;46.51;99249.00;5075268;28;20061;-68
2021/07/25 10:29:41;;;;;;;12.35;8.20;;;;;;;26.60;47.09;99246.94;5075110;28;20494;-68
2021/07/25 10:32:12;;;;;;;10.52;8.00;;;;;;;26.59;46.86;99230.38;5075148;28;20055;-69
2021/07/25 10:34:41;;;;;;;13.20;8.65;;;;;;;26.67;47.50;99231.59;5074995;28;20128;-70
2021/07/25 10:37:11;;;;;;;12.82;8.55;;;;;;;26.85;46.97;99227.66;5073568;28;20113;-68
2021/07/25 10:39:47;;;;;;;10.77;7.60;;;;;;;26.86;47.32;99237.19;5074986;28;20033;-71
2021/07/25 10:42:22;;;;;;;11.25;8.40;;;;;;;26.64;47.24;99232.66;5073875;28;20394;-71
2021/07/25 10:44:51;;;;;;;10.82;8.40;;;;;;;26.77;46.97;99230.00;5075470;28;20062;-70
2021/07/25 10:47:21;;;;;;;11.00;8.23;;;;;;;26.99;46.36;99222.22;5073495;28;20044;-70
2021/07/25 10:49:58;;;;;;;12.32;8.88;;;;;;;27.42;46.61;99231.16;5074795;28;20076;-71
2021/07/25 10:52:28;;;;;;;12.38;8.60;;;;;;;27.58;46.93;99221.13;5075583;28;20491;-71
2021/07/25 10:54:58;;;;;;;11.43;8.93;;;;;;;27.87;45.98;99216.22;5073715;28;20461;-71
2021/07/25 10:57:29;;;;;;;12.35;8.88;;;;;;;27.97;45.66;99221.59;5074579;28;20146;-72
2021/07/25 10:59:59;;;;;;;10.90;8.65;;;;;;;28.08;45.13;99218.97;5073044;28;20102;-71
2021/07/25 11:02:53;;;;;;;11.20;8.85;;;;;;;28.17;45.31;99218.25;5074449;28;20041;-70
2021/07/25 11:05:24;;;;;;;12.40;9.38;;;;;;;28.19;45.70;99218.97;5074680;28;20040;-71
2021/07/25 11:07:58;;;;;;;11.73;8.80;;;;;;;28.21;45.71;99214.41;5074505;28;20037;-70
2021/07/25 11:10:34;;;;;;;12.40;9.82;;;;;;;28.54;45.70;99212.50;5074369;28;20048;-72
2021/07/25 11:13:15;;;;;;;14.23;9.55;;;;;;;28.40;44.92;99219.84;5074399;28;20048;-73
2021/07/25 11:15:45;;;;;;;11.27;9.07;;;;;;;28.21;45.25;99214.41;5074122;28;20383;-69
2021/07/25 11:18:29;;;;;;;12.32;9.40;;;;;;;28.08;46.02;99218.97;5074054;28;20037;-70
2021/07/25 11:20:59;;;;;;;12.18;9.52;;;;;;;28.21;45.87;99215.25;5074473;28;20053;-72
2021/07/25 11:23:33;;;;;;;12.63;9.25;;;;;;;28.42;44.78;99207.41;5074142;28;20503;-71
2021/07/25 11:26:30;;;;;;;10.38;8.60;;;;;;;28.54;45.38;99216.91;5074016;28;20057;-71
2021/07/25 11:29:02;;;;;;;11.05;8.95;;;;;;;28.45;45.12;99217.69;5074089;28;20506;-70
2021/07/25 11:31:39;;;;;;;12.10;9.52;;;;;;;28.27;45.89;99211.28;5074048;28;20049;-71
2021/07/25 11:34:12;;;;;;;12.45;10.43;;;;;;;28.09;45.93;99199.66;5073980;28;20049;-70
2021/07/25 11:36:42;;;;;;;11.63;9.57;;;;;;;27.86;47.02;99210.16;5073998;28;20135;-71
2021/07/25 11:39:13;;;;;;;12.85;9.40;;;;;;;27.99;46.64;99196.88;5073756;28;20051;-69
2021/07/25 11:41:47;;;;;;;11.25;9.18;;;;;;;28.06;46.42;99199.88;5073841;28;20048;-71